»·PEaware :: DAL1380 KSFO-KSLC

DAL1380 :: KSFO-KSLC

FLIGHT INFORMATION

Flight Status: Arrived
Operator:
Delta Air Lines
More flights by this operator :: More flights under this callsign
Pilot: John C. (18682)
Aircraft: AIRBUS A320
(A320)
More flights by this aircraft type
Origin: KSFO San Francisco Intl
United States
Destination: KSLC Salt Lake City Intl
United States
More flights between these airports :: More routes between these airports
Route: TRUKN2 MOGEE Q124 BVL WAATS5
File this flight plan on PilotEdge
Remarks:
Altitude:
(Current/Filed)
35,000ft
Speed:
(Current/Filed)
453kts
Departed: 22-Oct-20 05:24 PM
Arrived: 22-Oct-20 06:51 PM
Distance/Time
Traveled:
519nm/1:27
Distance/Time
To Go:
Arrived

Flight Plot

Page will automatically refresh every two minutes.

Flight plan parsing failed; only flown route is shown


Map Options




Map Legend


Flown Route
Filed Route
Departure Airport
Arrival Airport
Navaid (VOR, NDB)
Fix

Horizontal Profiles

Position Reports

Time Latitude Longitude Heading Altitude Ground
Speed
22-Oct-20 17:03 37.614472 -122.381944 319 32ft 0kts
22-Oct-20 17:04 37.614472 -122.381944 319 32ft 0kts
22-Oct-20 17:05 37.614472 -122.381944 319 32ft 0kts
22-Oct-20 17:06 37.614472 -122.381944 319 32ft 0kts
22-Oct-20 17:07 37.614472 -122.381944 319 32ft 0kts
22-Oct-20 17:08 37.614472 -122.381944 319 32ft 0kts
22-Oct-20 17:09 37.614472 -122.381944 319 32ft 0kts
22-Oct-20 17:10 37.614472 -122.381944 319 32ft 0kts
22-Oct-20 17:11 37.614472 -122.381944 319 32ft 0kts
22-Oct-20 17:12 37.614472 -122.381944 319 32ft 0kts
22-Oct-20 17:13 37.614472 -122.381944 319 32ft 0kts
22-Oct-20 17:14 37.614472 -122.381944 319 32ft 0kts
22-Oct-20 17:15 37.614449 -122.381919 320 32ft 2kts
22-Oct-20 17:16 37.614124 -122.381408 256 32ft 2kts
22-Oct-20 17:17 37.614283 -122.381186 207 32ft 0kts
22-Oct-20 17:18 37.614283 -122.381186 207 32ft 0kts
22-Oct-20 17:19 37.614283 -122.381186 207 32ft 0kts
22-Oct-20 17:20 37.612946 -122.382078 208 32ft 21kts
22-Oct-20 17:21 37.608686 -122.384390 118 32ft 10kts
22-Oct-20 17:22 37.608338 -122.383560 117 32ft 9kts
22-Oct-20 17:23 37.617584 -122.376511 26 26ft 148kts
22-Oct-20 17:24 37.652813 -122.334882 54 2467ft 207kts
22-Oct-20 17:25 37.692776 -122.263324 55 5255ft 274kts
22-Oct-20 17:26 37.743133 -122.191420 33 8868ft 284kts
22-Oct-20 17:27 37.811837 -122.129388 33 11201ft 337kts
22-Oct-20 17:28 37.889613 -122.053724 46 13713ft 365kts
22-Oct-20 17:29 37.956876 -121.954440 47 16240ft 378kts
22-Oct-20 17:30 38.026453 -121.851596 47 18497ft 390kts
22-Oct-20 17:31 38.098101 -121.745314 47 20530ft 401kts
22-Oct-20 17:32 38.171477 -121.636097 47 22373ft 412kts
22-Oct-20 17:34 38.246916 -121.523419 47 24013ft 423kts
22-Oct-20 17:35 38.323796 -121.408183 47 25505ft 433kts
22-Oct-20 17:36 38.399713 -121.287235 49 26888ft 442kts
22-Oct-20 17:37 38.476672 -121.162862 49 28144ft 450kts
22-Oct-20 17:38 38.554937 -121.035869 49 29186ft 460kts
22-Oct-20 17:39 38.634874 -120.905639 48 30248ft 466kts
22-Oct-20 17:40 38.714287 -120.775784 48 31668ft 462kts
22-Oct-20 17:41 38.793347 -120.645945 48 32943ft 460kts
22-Oct-20 17:42 38.871708 -120.516737 48 34144ft 457kts
22-Oct-20 17:43 38.949780 -120.387485 47 35063ft 457kts
22-Oct-20 17:44 39.027340 -120.258577 46 35142ft 459kts
22-Oct-20 17:45 39.105636 -120.127896 46 35151ft 460kts
22-Oct-20 17:46 39.183510 -119.997407 46 35160ft 460kts
22-Oct-20 17:47 39.261454 -119.866256 46 35144ft 460kts
22-Oct-20 17:48 39.339016 -119.735212 46 35121ft 460kts
22-Oct-20 17:49 39.416843 -119.603174 46 35126ft 460kts
22-Oct-20 17:50 39.494144 -119.471486 46 35120ft 461kts
22-Oct-20 17:51 39.571656 -119.338888 46 35125ft 460kts
22-Oct-20 17:52 39.648761 -119.206435 46 35114ft 460kts
22-Oct-20 17:52 39.712963 -119.095724 46 35114ft 460kts
22-Oct-20 17:54 39.802811 -118.940142 46 35116ft 461kts
22-Oct-20 17:54 39.867274 -118.828048 47 35099ft 466kts
22-Oct-20 17:56 39.943405 -118.653184 56 35142ft 479kts
22-Oct-20 17:56 39.995389 -118.524921 56 35175ft 481kts
22-Oct-20 17:57 40.058035 -118.370242 56 35178ft 481kts
22-Oct-20 17:58 40.120409 -118.215416 57 35149ft 480kts
22-Oct-20 17:59 40.182316 -118.060953 57 35137ft 480kts
22-Oct-20 18:00 40.228516 -117.894938 68 35148ft 487kts
22-Oct-20 18:01 40.268020 -117.725406 68 35165ft 487kts
22-Oct-20 18:02 40.307328 -117.555407 68 35170ft 487kts
22-Oct-20 18:03 40.346394 -117.385151 68 35173ft 487kts
22-Oct-20 18:04 40.385139 -117.215016 69 35167ft 486kts
22-Oct-20 18:05 40.423599 -117.044839 69 35160ft 487kts
22-Oct-20 18:06 40.462326 -116.873106 69 35149ft 490kts
22-Oct-20 18:07 40.500555 -116.700760 69 35180ft 493kts
22-Oct-20 18:08 40.538870 -116.526988 69 35206ft 494kts
22-Oct-20 18:09 40.570617 -116.350531 80 35200ft 501kts
22-Oct-20 18:10 40.584586 -116.168699 81 35153ft 499kts
22-Oct-20 18:11 40.598411 -115.986202 81 35130ft 499kts
22-Oct-20 18:12 40.611886 -115.804315 81 35130ft 499kts
22-Oct-20 18:13 40.625058 -115.622602 81 35137ft 499kts
22-Oct-20 18:14 40.638005 -115.439957 81 35142ft 500kts
22-Oct-20 18:15 40.650639 -115.257599 81 35145ft 499kts
22-Oct-20 18:16 40.663007 -115.074928 82 35122ft 500kts
22-Oct-20 18:17 40.675136 -114.891409 82 35094ft 505kts
22-Oct-20 18:18 40.687085 -114.706051 82 35108ft 508kts
22-Oct-20 18:19 40.698824 -114.519287 82 35137ft 510kts
22-Oct-20 18:20 40.706335 -114.332011 85 35129ft 510kts
22-Oct-20 18:21 40.713067 -114.145774 85 35021ft 509kts
22-Oct-20 18:22 40.719480 -113.960012 85 33233ft 508kts
22-Oct-20 18:23 40.725654 -113.771311 86 29920ft 521kts
22-Oct-20 18:24 40.725967 -113.580578 89 27247ft 513kts
22-Oct-20 18:25 40.725558 -113.395004 89 24695ft 500kts
22-Oct-20 18:26 40.724871 -113.216331 90 22467ft 479kts
22-Oct-20 18:27 40.724000 -113.048930 90 19691ft 443kts
22-Oct-20 18:28 40.722869 -112.888438 90 17287ft 430kts
22-Oct-20 18:29 40.721612 -112.734666 90 16823ft 415kts
22-Oct-20 18:30 40.720136 -112.582362 90 16823ft 415kts
22-Oct-20 18:31 40.716732 -112.428577 92 14565ft 419kts
22-Oct-20 18:32 40.712074 -112.279436 92 12458ft 398kts
22-Oct-20 18:33 40.724892 -112.141779 53 11809ft 376kts
22-Oct-20 18:34 40.807154 -112.097701 350 11805ft 293kts
22-Oct-20 18:35 40.883134 -112.107280 349 11810ft 261kts
22-Oct-20 18:36 40.955023 -112.115988 349 11809ft 259kts
22-Oct-20 18:37 41.026800 -112.124583 349 11807ft 258kts
22-Oct-20 18:38 41.098688 -112.133192 349 11805ft 258kts
22-Oct-20 18:39 41.170140 -112.141763 348 11802ft 258kts
22-Oct-20 18:40 41.242075 -112.147176 10 11791ft 268kts
22-Oct-20 18:41 41.267899 -112.063512 123 10759ft 281kts
22-Oct-20 18:42 41.211989 -111.994979 142 9624ft 271kts
22-Oct-20 18:43 41.143858 -111.995240 202 8809ft 258kts
22-Oct-20 18:44 41.076242 -112.008314 177 8822ft 227kts
22-Oct-20 18:45 41.016122 -112.001103 178 8471ft 215kts
22-Oct-20 18:46 40.957291 -111.994312 176 7128ft 208kts
22-Oct-20 18:47 40.901196 -111.987793 176 6080ft 188kts
22-Oct-20 18:48 40.852068 -111.982093 176 5156ft 158kts
22-Oct-20 18:49 40.810303 -111.977272 176 4329ft 149kts
22-Oct-20 18:50 40.786316 -111.974809 192 4236ft 28kts
22-Oct-20 18:51 40.785757 -111.976572 355 4236ft 12kts
22-Oct-20 18:52 40.789742 -111.977581 273 4236ft 11kts
22-Oct-20 18:53 40.788295 -111.979976 198 4236ft 9kts
22-Oct-20 18:54 40.787077 -111.979193 133 4236ft 0kts
22-Oct-20 18:55 40.787077 -111.979193 133 4236ft 0kts
22-Oct-20 18:56 40.787077 -111.979193 133 4236ft 0kts
22-Oct-20 18:57 40.787077 -111.979193 133 4236ft 0kts

Navigation Log

Ident Type
Flight plan parsing failed, navigation log unavailable